Gordonsville, Tennessee
Current Conditions -  °F | °C
As of 6:15 PM on Thursday 27 Nov 2014 (Local Time) from KSRB Reporting Station
Overcast Overcast  
Wind Chill: 22°   Ceiling: 2500
Heat Index: 30°   Visibility: 10mi
Dew Point: 23°   Wind: 9mph
Humidity: 75%   Direction: 340°NNW
Pressure: 30.43"   Gusts: NA
Location:  36.17°N, 85.93°W
Report Text: KSRB 280015Z AUTO 34008KT 10SM OVC025 M01/M05 A3043 RMK
Loading
Personal Weather Stations






























Interactive Weather Map New forecast layout! Learn more

10-Day Weather Forecast

Advertisements
Track Severe Weather on mobile